Terminal Aerodrome Forecast
Issued by NWS Quad Cities IA IL

Home | Current Version | Previous Version | Text Only | Print | Product List | Glossary On
Versions: 1 2 3 4 5 6 7 8 9 10 11 12 13 14 15 16 17 18 19 20 21
000
FTUS43 KDVN 210500
TAFDBQ
TAF
KDBQ 210520Z 2106/2206 13005KT P6SM BKN120
     FM210900 15006KT 5SM -SHRA BR VCTS SCT060CB OVC120
     FM211500 20010KT P6SM BKN120
     FM220100 14005KT P6SM VCTS BKN050CB=

USA.gov is the U.S. government's official web portal to all federal, state and local government web resources and services.